Accueil
METAR-TAF:

METAR-TAF

Aéroports :

Aéroport Cristiano-Ronaldo

Funchal, Madère, Portugal

latitude: 32-41-52N, longitude: 016-46-28W, altitude: 59 m

Observation

Le bulletin a été fait il y a 18 minutes, à 00:00 UTC
Vent 13 kt de nord, variant entre nord/nord-ouest et nord-est
Température 21°C
Humidité 64%
Pression 1022 hPa
Visibilité 10 km ou plus
Quelques nuages à une hauteur de 1600 ft

METAR: LPMA 050000Z 01013KT 340V040 9999 FEW016 21/14 Q1022

Heure: 01:18 (00:18 UTC)

Prévision

Le bulletin a été fait il y a 1 heure et 18 minutes, à 23:00 UTC
Prévision valable du 05 à 00 UTC au 05 à 24 UTC
Vent 15 kt de nord/nord-est
Visibilité 10 km ou plus
Nuages épars à une hauteur de 1600 ft
Temporairement
du 05 à 00 UTC au 05 à 24 UTC
Vent 18 kt de nord/nord-est avec des rafales jusqu'à 30 kt
Nuages fragmentés à une hauteur de 1500 ft

TAF: LPMA 042300Z 0500/0524 02015KT 9999 SCT016 TEMPO 0500/0524 02018G30KT BKN015

Observations et prévisions météorologiques de plus de 4000 aéroports (messages METAR et TAF).

Les stations disponibles sont représentées par des disques jaunes et rouges sur la carte.

Passer la souris dessus pour voir le nom de la station.

Cliquer dessus pour voir les observations et prévisions météorologiques.

Pour changer de carte: cliquez sur les boutons verts avec une croix noire pour zoomer, sur le bouton vert avec un tiret pour effectuer un zoom arrière, ou sur les flèches vertes pour les cartes adjacentes.


METAR-TAF: